createdAt,value
2019-05-18T00:01:18.653Z,14.90
2019-05-18T00:02:55.832Z,15.00
2019-05-18T00:04:32.743Z,14.90
2019-05-18T00:06:11.626Z,14.90
2019-05-18T00:07:48.187Z,14.90
2019-05-18T00:09:25.604Z,14.90
2019-05-18T00:11:02.187Z,14.90
2019-05-18T00:12:39.496Z,14.90
2019-05-18T00:14:16.018Z,14.90
2019-05-18T00:15:53.300Z,14.90
2019-05-18T00:17:29.915Z,14.80
2019-05-18T00:19:07.235Z,14.80
2019-05-18T00:20:43.842Z,14.90
2019-05-18T00:22:21.118Z,14.90
2019-05-18T00:24:00.384Z,14.80
2019-05-18T00:25:38.773Z,14.80
2019-05-18T00:27:15.225Z,14.80
2019-05-18T00:28:52.487Z,14.90
2019-05-18T00:30:29.004Z,14.90
2019-05-18T00:32:06.283Z,14.90
2019-05-18T00:33:42.683Z,14.90
2019-05-18T00:35:20.028Z,15.00
2019-05-18T00:36:56.417Z,14.90
2019-05-18T00:38:33.618Z,14.90
2019-05-18T00:40:11.309Z,15.00
2019-05-18T00:41:48.477Z,15.00
2019-05-18T00:43:25.088Z,15.00
2019-05-18T00:45:02.368Z,15.00
2019-05-18T00:46:39.102Z,15.10
2019-05-18T00:48:16.196Z,15.00
2019-05-18T00:49:52.664Z,15.00
2019-05-18T00:51:29.865Z,15.00
2019-05-18T00:53:07.360Z,15.00
2019-05-18T00:54:44.707Z,15.00
2019-05-18T00:56:21.143Z,15.00
2019-05-18T00:57:58.423Z,15.00
2019-05-18T00:59:34.951Z,15.00
2019-05-18T01:01:12.594Z,15.10
2019-05-18T01:02:49.107Z,15.10
2019-05-18T01:04:26.808Z,15.10
2019-05-18T01:06:03.349Z,15.10
2019-05-18T01:07:40.574Z,15.10
2019-05-18T01:09:17.056Z,15.00
2019-05-18T01:10:54.297Z,15.10
2019-05-18T01:12:30.831Z,15.10
2019-05-18T01:14:08.170Z,15.00
2019-05-18T01:15:44.703Z,15.10
2019-05-18T01:17:21.970Z,15.10
2019-05-18T01:18:58.438Z,15.10
2019-05-18T01:20:35.877Z,15.10
2019-05-18T01:22:12.239Z,15.10
2019-05-18T01:23:49.416Z,15.10
2019-05-18T01:25:25.867Z,15.10
2019-05-18T01:27:03.120Z,15.10
2019-05-18T01:28:39.574Z,15.20
2019-05-18T01:30:17.514Z,15.20
2019-05-18T01:31:53.954Z,15.10
2019-05-18T01:33:31.320Z,15.10
2019-05-18T01:35:09.223Z,15.10
2019-05-18T01:36:46.303Z,15.10
2019-05-18T01:38:22.729Z,15.10
2019-05-18T01:40:00.020Z,15.10
2019-05-18T01:41:36.379Z,15.10
2019-05-18T01:43:13.554Z,15.10
2019-05-18T01:44:49.923Z,15.00
2019-05-18T01:46:27.624Z,15.00
2019-05-18T01:48:13.152Z,15.00
2019-05-18T01:49:43.024Z,15.00
2019-05-18T01:51:19.378Z,14.90
2019-05-18T01:52:56.575Z,14.90
2019-05-18T01:54:33.191Z,14.90
2019-05-18T01:56:10.532Z,14.90
2019-05-18T01:57:46.891Z,15.00
2019-05-18T01:59:23.995Z,15.00
2019-05-18T02:01:00.528Z,14.90
2019-05-18T02:02:37.756Z,14.80
2019-05-18T02:04:14.134Z,14.90
2019-05-18T02:05:51.356Z,14.80
2019-05-18T02:07:27.809Z,14.80
2019-05-18T02:09:06.960Z,14.80
2019-05-18T02:10:43.499Z,14.80
2019-05-18T02:12:20.817Z,14.70
2019-05-18T02:13:57.418Z,14.80
2019-05-18T02:15:34.698Z,14.80
2019-05-18T02:17:11.206Z,14.80
2019-05-18T02:18:48.383Z,14.80
2019-05-18T02:20:24.748Z,14.90
2019-05-18T02:22:01.948Z,14.90
2019-05-18T02:23:38.682Z,14.90
2019-05-18T02:25:16.827Z,14.80
2019-05-18T02:26:53.335Z,14.90
2019-05-18T02:28:30.687Z,14.90
2019-05-18T02:30:10.507Z,14.90
2019-05-18T02:31:47.611Z,14.90
2019-05-18T02:33:23.912Z,14.90
2019-05-18T02:35:00.482Z,14.90
2019-05-18T02:36:37.840Z,14.90
2019-05-18T02:38:15.920Z,14.90
2019-05-18T02:39:53.924Z,14.80
2019-05-18T02:41:30.492Z,14.90
2019-05-18T02:43:07.528Z,14.80
2019-05-18T02:44:43.925Z,14.80
2019-05-18T02:46:21.172Z,14.80
2019-05-18T02:47:57.540Z,14.80
2019-05-18T02:49:34.650Z,14.80
2019-05-18T02:51:11.893Z,14.90
2019-05-18T02:52:49.338Z,14.90
2019-05-18T02:54:26.176Z,14.80
2019-05-18T02:56:03.423Z,14.90
2019-05-18T02:57:39.960Z,14.90
2019-05-18T02:59:17.240Z,14.80
2019-05-18T03:00:53.846Z,14.80
2019-05-18T03:02:31.187Z,15.00
2019-05-18T03:04:07.785Z,15.00
2019-05-18T03:05:46.056Z,15.00
2019-05-18T03:07:25.234Z,15.00
2019-05-18T03:09:02.607Z,15.00
2019-05-18T03:10:38.953Z,15.00
2019-05-18T03:12:16.196Z,14.90
2019-05-18T03:13:52.120Z,14.90
2019-05-18T03:15:29.462Z,14.90
2019-05-18T03:17:05.988Z,14.80
2019-05-18T03:18:43.255Z,14.80
2019-05-18T03:20:19.721Z,14.80
2019-05-18T03:22:00.723Z,14.80
2019-05-18T03:23:35.137Z,14.80
2019-05-18T03:25:12.796Z,14.70
2019-05-18T03:26:49.172Z,14.70
2019-05-18T03:28:26.768Z,14.70
2019-05-18T03:30:04.502Z,14.70
2019-05-18T03:31:41.665Z,14.70
2019-05-18T03:33:18.137Z,14.80
2019-05-18T03:34:55.168Z,14.80
2019-05-18T03:36:31.823Z,14.80
2019-05-18T03:38:09.135Z,14.70
2019-05-18T03:39:45.572Z,14.80
2019-05-18T03:41:22.816Z,14.80
2019-05-18T03:42:59.370Z,14.80
2019-05-18T03:44:36.537Z,14.70
2019-05-18T03:46:13.007Z,14.80
2019-05-18T03:47:50.352Z,14.70
2019-05-18T03:49:27.834Z,14.80
2019-05-18T03:51:05.626Z,14.70
2019-05-18T03:52:42.016Z,14.80
2019-05-18T03:54:19.226Z,14.70
2019-05-18T03:55:55.706Z,14.70
2019-05-18T03:57:32.874Z,14.80
2019-05-18T03:59:09.305Z,14.80
2019-05-18T04:00:46.785Z,14.80
2019-05-18T04:02:23.386Z,14.70
2019-05-18T04:04:00.908Z,14.70
2019-05-18T04:05:37.372Z,14.70
2019-05-18T04:07:14.478Z,14.80
2019-05-18T04:08:50.918Z,14.80
2019-05-18T04:10:29.484Z,14.80
2019-05-18T04:12:05.919Z,14.90
2019-05-18T04:13:43.192Z,14.90
2019-05-18T04:15:19.524Z,14.90
2019-05-18T04:16:57.539Z,14.90
2019-05-18T04:18:34.716Z,15.00
2019-05-18T04:20:11.572Z,15.10
2019-05-18T04:21:48.834Z,15.10
2019-05-18T04:23:25.366Z,15.20
2019-05-18T04:25:02.799Z,15.30
2019-05-18T04:26:39.635Z,15.40
2019-05-18T04:28:16.671Z,15.50
2019-05-18T04:29:53.091Z,15.60
2019-05-18T04:31:32.377Z,15.60
2019-05-18T04:33:08.427Z,15.60
2019-05-18T04:34:45.603Z,15.60
2019-05-18T04:36:22.033Z,15.70
2019-05-18T04:38:00.264Z,15.70
2019-05-18T04:39:36.737Z,15.80
2019-05-18T04:41:13.916Z,15.70
2019-05-18T04:42:50.675Z,15.70
2019-05-18T04:44:27.217Z,15.70
2019-05-18T04:46:03.582Z,15.80
2019-05-18T04:47:40.961Z,16.10
2019-05-18T04:49:17.341Z,16.20
2019-05-18T04:50:54.612Z,16.30
2019-05-18T04:52:31.416Z,16.40
2019-05-18T04:54:08.659Z,16.50
2019-05-18T04:55:45.023Z,16.70
2019-05-18T04:57:22.561Z,16.90
2019-05-18T04:58:59.283Z,17.20
2019-05-18T05:00:37.715Z,17.70
2019-05-18T05:02:14.737Z,17.90
2019-05-18T05:03:52.193Z,18.00
2019-05-18T05:05:29.473Z,18.30
2019-05-18T05:07:06.939Z,18.40
2019-05-18T05:08:43.608Z,18.50
2019-05-18T05:10:21.171Z,18.40
2019-05-18T05:11:57.775Z,18.60
2019-05-18T05:13:34.925Z,18.60
2019-05-18T05:15:11.727Z,18.80
2019-05-18T05:16:49.154Z,18.50
2019-05-18T05:18:25.514Z,18.40
2019-05-18T05:20:01.978Z,18.80
2019-05-18T05:21:39.082Z,19.00
2019-05-18T05:23:16.684Z,19.40
2019-05-18T05:24:53.332Z,19.60
2019-05-18T05:26:30.954Z,20.00
2019-05-18T05:28:07.594Z,20.30
2019-05-18T05:29:45.119Z,20.30
2019-05-18T05:31:21.551Z,19.60
2019-05-18T05:32:59.146Z,19.60
2019-05-18T05:34:35.871Z,19.50
2019-05-18T05:36:12.992Z,19.40
2019-05-18T05:37:48.858Z,19.50
2019-05-18T05:39:26.169Z,19.50
2019-05-18T05:41:03.717Z,19.60
2019-05-18T05:42:41.939Z,19.60
2019-05-18T05:44:18.734Z,19.50
2019-05-18T05:45:56.769Z,19.50
2019-05-18T05:47:33.538Z,19.70
2019-05-18T05:49:11.049Z,19.60
2019-05-18T05:50:47.742Z,19.20
2019-05-18T05:52:25.255Z,19.20
2019-05-18T05:54:02.815Z,19.20
2019-05-18T05:55:40.313Z,19.20
2019-05-18T05:57:19.723Z,19.40
2019-05-18T05:58:56.826Z,19.60
2019-05-18T06:00:34.116Z,19.50
2019-05-18T06:02:11.568Z,19.40
2019-05-18T06:03:48.374Z,19.50
2019-05-18T06:05:25.958Z,19.40
2019-05-18T06:07:02.875Z,19.70
2019-05-18T06:08:40.101Z,20.00
2019-05-18T06:10:16.808Z,19.70
2019-05-18T06:11:54.019Z,19.90
2019-05-18T06:13:30.489Z,20.10
2019-05-18T06:15:11.127Z,20.00
2019-05-18T06:16:48.061Z,20.10
2019-05-18T06:18:25.292Z,20.10
2019-05-18T06:20:01.852Z,20.00
2019-05-18T06:21:39.366Z,19.90
2019-05-18T06:23:15.836Z,19.90
2019-05-18T06:24:53.038Z,19.80
2019-05-18T06:26:29.505Z,20.00
2019-05-18T06:28:07.082Z,20.10
2019-05-18T06:29:44.425Z,19.90
2019-05-18T06:31:23.235Z,19.80
2019-05-18T06:32:59.935Z,19.70
2019-05-18T06:34:37.328Z,19.40
2019-05-18T06:36:13.749Z,19.20
2019-05-18T06:37:51.304Z,19.20
2019-05-18T06:39:27.894Z,19.70
2019-05-18T06:41:05.133Z,19.10
2019-05-18T06:42:42.568Z,19.60
2019-05-18T06:44:19.915Z,19.80
2019-05-18T06:45:56.856Z,19.40
2019-05-18T06:47:34.215Z,19.80
2019-05-18T06:49:10.808Z,20.50
2019-05-18T06:50:48.538Z,20.40
2019-05-18T06:52:25.497Z,20.00
2019-05-18T06:54:03.373Z,20.10
2019-05-18T06:55:41.079Z,20.20
2019-05-18T06:57:19.569Z,20.10
2019-05-18T06:59:00.247Z,20.20
2019-05-18T07:00:37.435Z,20.00
2019-05-18T07:02:13.977Z,20.60
2019-05-18T07:03:51.708Z,21.50
2019-05-18T07:05:31.355Z,22.10
2019-05-18T07:07:08.647Z,21.60
2019-05-18T07:08:45.489Z,21.20
2019-05-18T07:10:22.889Z,21.70
2019-05-18T07:12:01.156Z,21.10
2019-05-18T07:13:45.781Z,21.30
2019-05-18T07:15:24.006Z,21.50
2019-05-18T07:17:00.912Z,22.00
2019-05-18T07:18:38.198Z,22.10
2019-05-18T07:20:15.878Z,22.60
2019-05-18T07:21:53.062Z,22.90
2019-05-18T07:23:29.834Z,22.60
2019-05-18T07:25:11.220Z,21.50
2019-05-18T07:26:48.510Z,21.20
2019-05-18T07:28:25.352Z,21.10
2019-05-18T07:30:03.027Z,21.00
2019-05-18T07:31:40.885Z,21.60
2019-05-18T07:33:18.726Z,22.20
2019-05-18T07:34:55.531Z,22.60
2019-05-18T07:36:33.321Z,23.10
2019-05-18T07:38:09.871Z,23.20
2019-05-18T07:39:47.558Z,22.40
2019-05-18T07:41:24.532Z,21.90
2019-05-18T07:43:02.218Z,21.40
2019-05-18T07:44:39.344Z,22.00
2019-05-18T07:46:17.066Z,21.90
2019-05-18T07:47:53.474Z,22.80
2019-05-18T07:49:31.146Z,23.10
2019-05-18T07:51:07.796Z,22.90
2019-05-18T07:52:46.041Z,23.00
2019-05-18T07:54:22.657Z,23.00
2019-05-18T07:55:59.874Z,23.90
2019-05-18T07:57:37.227Z,22.70
2019-05-18T07:59:14.334Z,22.20
2019-05-18T08:00:50.798Z,23.00
2019-05-18T08:02:28.007Z,22.50
2019-05-18T08:04:04.948Z,22.30
2019-05-18T08:05:42.228Z,22.30
2019-05-18T08:07:18.686Z,21.50
2019-05-18T08:08:56.150Z,21.80
2019-05-18T08:10:43.627Z,22.00
2019-05-18T08:12:19.962Z,22.30
2019-05-18T08:13:57.132Z,22.00
2019-05-18T08:15:36.655Z,22.40
2019-05-18T08:17:14.222Z,23.20
2019-05-18T08:18:51.644Z,23.30
2019-05-18T08:20:28.809Z,23.00
2019-05-18T08:22:07.072Z,22.60
2019-05-18T08:23:44.195Z,22.60
2019-05-18T08:25:21.027Z,23.60
2019-05-18T08:27:01.553Z,23.70
2019-05-18T08:28:36.511Z,23.70
2019-05-18T08:30:13.784Z,23.10
2019-05-18T08:31:50.516Z,23.30
2019-05-18T08:33:27.801Z,22.80
2019-05-18T08:35:05.417Z,23.10
2019-05-18T08:36:42.460Z,24.00
2019-05-18T08:38:18.989Z,24.30
2019-05-18T08:39:56.187Z,23.90
2019-05-18T08:41:33.124Z,24.10
2019-05-18T08:43:10.876Z,24.00
2019-05-18T08:44:47.412Z,24.20
2019-05-18T08:46:24.506Z,24.20
2019-05-18T08:48:00.982Z,25.00
2019-05-18T08:49:38.146Z,23.50
2019-05-18T08:51:14.736Z,23.40
2019-05-18T08:52:52.304Z,23.20
2019-05-18T08:54:28.775Z,23.00
2019-05-18T08:56:06.415Z,22.30
2019-05-18T08:57:42.849Z,22.60
2019-05-18T08:59:20.062Z,22.30
2019-05-18T09:00:56.890Z,22.40
2019-05-18T09:02:34.731Z,22.60
2019-05-18T09:04:11.029Z,22.50
2019-05-18T09:05:48.219Z,22.10
2019-05-18T09:07:24.669Z,22.00
2019-05-18T09:09:02.007Z,22.30
2019-05-18T09:10:39.411Z,22.40
2019-05-18T09:12:18.451Z,22.20
2019-05-18T09:13:55.375Z,22.10
2019-05-18T09:15:32.961Z,22.10
2019-05-18T09:17:09.478Z,22.30
2019-05-18T09:18:49.844Z,22.60
2019-05-18T09:20:26.346Z,22.50
2019-05-18T09:22:03.452Z,22.70
2019-05-18T09:23:39.930Z,22.80
2019-05-18T09:25:17.958Z,22.70
2019-05-18T09:26:54.321Z,22.90
2019-05-18T09:28:31.833Z,23.60
2019-05-18T09:30:10.921Z,23.30
2019-05-18T09:31:48.109Z,23.70
2019-05-18T09:33:24.650Z,23.20
2019-05-18T09:35:02.820Z,22.80
2019-05-18T09:36:39.266Z,22.70
2019-05-18T09:38:16.614Z,23.20
2019-05-18T09:39:53.048Z,22.70
2019-05-18T09:41:30.492Z,23.10
2019-05-18T09:43:06.854Z,23.50
2019-05-18T09:44:45.091Z,23.60
2019-05-18T09:46:21.703Z,23.40
2019-05-18T09:47:59.863Z,23.70
2019-05-18T09:49:36.403Z,23.60
2019-05-18T09:51:14.450Z,23.70
2019-05-18T09:52:52.242Z,23.70
2019-05-18T09:54:29.483Z,23.50
2019-05-18T09:56:06.090Z,23.00
2019-05-18T09:57:44.351Z,22.70
2019-05-18T09:59:20.810Z,23.00
2019-05-18T10:00:58.054Z,22.40
2019-05-18T10:02:34.653Z,22.60
2019-05-18T10:04:11.848Z,22.60
2019-05-18T10:05:48.506Z,23.00
2019-05-18T10:07:28.072Z,23.10
2019-05-18T10:09:06.729Z,23.80
2019-05-18T10:10:44.319Z,24.00
2019-05-18T10:12:24.660Z,24.10
2019-05-18T10:14:00.494Z,23.30
2019-05-18T10:15:37.377Z,23.30
2019-05-18T10:17:15.038Z,23.60
2019-05-18T10:18:51.667Z,23.50
2019-05-18T10:20:28.843Z,23.40
2019-05-18T10:22:06.175Z,23.10
2019-05-18T10:23:43.439Z,22.80
2019-05-18T10:25:21.063Z,23.10
2019-05-18T10:26:58.242Z,22.90
2019-05-18T10:28:34.696Z,22.40
2019-05-18T10:30:14.230Z,22.50
2019-05-18T10:31:51.097Z,22.30
2019-05-18T10:33:28.428Z,23.10
2019-05-18T10:35:06.643Z,23.60
2019-05-18T10:36:43.806Z,24.30
2019-05-18T10:38:21.994Z,23.80
2019-05-18T10:39:59.381Z,23.40
2019-05-18T10:41:35.987Z,23.30
2019-05-18T10:43:13.202Z,23.30
2019-05-18T10:44:49.695Z,23.40
2019-05-18T10:46:26.825Z,23.40
2019-05-18T10:48:04.991Z,23.50
2019-05-18T10:49:42.168Z,23.00
2019-05-18T10:51:18.526Z,22.70
2019-05-18T10:52:55.813Z,22.70
2019-05-18T10:54:32.749Z,23.20
2019-05-18T10:56:09.298Z,23.10
2019-05-18T10:57:45.737Z,22.70
2019-05-18T10:59:23.136Z,22.90
2019-05-18T11:00:59.631Z,22.80
2019-05-18T11:02:37.334Z,23.00
2019-05-18T11:04:13.754Z,23.10
2019-05-18T11:05:51.150Z,23.00
2019-05-18T11:07:29.070Z,22.80
2019-05-18T11:09:08.124Z,23.20
2019-05-18T11:10:44.954Z,23.00
2019-05-18T11:12:22.428Z,23.50
2019-05-18T11:13:58.870Z,23.30
2019-05-18T11:15:36.522Z,22.70
2019-05-18T11:17:13.001Z,23.10
2019-05-18T11:18:51.226Z,23.60
2019-05-18T11:20:28.142Z,23.10
2019-05-18T11:22:05.429Z,22.60
2019-05-18T11:23:44.319Z,22.60
2019-05-18T11:25:21.521Z,22.70
2019-05-18T11:26:58.124Z,22.60
2019-05-18T11:28:35.667Z,22.60
2019-05-18T11:30:13.583Z,22.60
2019-05-18T11:31:51.411Z,23.10
2019-05-18T11:33:27.960Z,23.30
2019-05-18T11:35:06.501Z,23.10
2019-05-18T11:36:43.136Z,23.00
2019-05-18T11:38:20.336Z,23.10
2019-05-18T11:39:57.128Z,22.70
2019-05-18T11:41:35.326Z,23.20
2019-05-18T11:43:11.872Z,23.60
2019-05-18T11:44:49.458Z,24.30
2019-05-18T11:46:26.802Z,24.20
2019-05-18T11:48:04.071Z,24.30
2019-05-18T11:49:41.453Z,24.40
2019-05-18T11:51:19.695Z,24.20
2019-05-18T11:52:56.196Z,23.70
2019-05-18T11:54:33.898Z,23.00
2019-05-18T11:56:10.441Z,22.80
2019-05-18T11:57:47.597Z,22.90
2019-05-18T11:59:24.214Z,22.90
2019-05-18T12:01:01.545Z,23.00
2019-05-18T12:02:38.096Z,23.50
2019-05-18T12:04:15.247Z,23.60
2019-05-18T12:05:52.290Z,23.60
2019-05-18T12:07:29.390Z,23.40
2019-05-18T12:09:07.206Z,23.30
2019-05-18T12:10:44.798Z,23.60
2019-05-18T12:12:21.167Z,23.70
2019-05-18T12:13:58.364Z,24.00
2019-05-18T12:15:34.984Z,24.20
2019-05-18T12:17:12.164Z,24.50
2019-05-18T12:18:48.619Z,24.90
2019-05-18T12:20:26.617Z,25.20
2019-05-18T12:22:02.961Z,25.80
2019-05-18T12:23:41.166Z,26.10
2019-05-18T12:25:17.766Z,26.20
2019-05-18T12:26:54.797Z,26.60
2019-05-18T12:28:32.151Z,27.00
2019-05-18T12:30:11.923Z,27.20
2019-05-18T12:31:48.357Z,27.70
2019-05-18T12:33:26.018Z,27.30
2019-05-18T12:35:02.650Z,26.30
2019-05-18T12:36:40.178Z,25.70
2019-05-18T12:38:16.964Z,25.50
2019-05-18T12:39:55.142Z,26.10
2019-05-18T12:41:31.910Z,26.10
2019-05-18T12:43:09.027Z,25.60
2019-05-18T12:44:45.835Z,25.70
2019-05-18T12:46:23.067Z,26.20
2019-05-18T12:47:59.359Z,26.60
2019-05-18T12:49:36.473Z,26.70
2019-05-18T12:51:13.959Z,27.20
2019-05-18T12:52:53.924Z,27.30
2019-05-18T12:54:45.355Z,27.50
2019-05-18T12:56:09.321Z,27.60
2019-05-18T12:57:46.337Z,27.10
2019-05-18T12:59:23.586Z,25.80
2019-05-18T13:01:00.127Z,25.70
2019-05-18T13:02:37.529Z,25.80
2019-05-18T13:04:14.004Z,26.10
2019-05-18T13:05:51.257Z,26.70
2019-05-18T13:07:27.693Z,27.10
2019-05-18T13:09:07.636Z,26.40
2019-05-18T13:10:44.493Z,26.30
2019-05-18T13:12:21.668Z,25.80
2019-05-18T13:13:58.335Z,25.70
2019-05-18T13:15:35.666Z,25.20
2019-05-18T13:17:12.129Z,25.40
2019-05-18T13:18:49.011Z,25.90
2019-05-18T13:20:26.727Z,26.10
2019-05-18T13:22:03.970Z,25.40
2019-05-18T13:23:40.812Z,25.50
2019-05-18T13:25:19.152Z,26.00
2019-05-18T13:26:56.506Z,25.60
2019-05-18T13:28:34.173Z,25.80
2019-05-18T13:30:14.184Z,26.20
2019-05-18T13:31:51.449Z,25.90
2019-05-18T13:33:27.812Z,26.60
2019-05-18T13:35:08.797Z,26.10
2019-05-18T13:36:46.176Z,26.50
2019-05-18T13:38:22.621Z,26.90
2019-05-18T13:40:00.225Z,27.20
2019-05-18T13:41:37.645Z,27.40
2019-05-18T13:43:15.086Z,27.60
2019-05-18T13:44:51.358Z,27.80
2019-05-18T13:46:28.603Z,28.10
2019-05-18T13:48:05.322Z,27.90
2019-05-18T13:49:43.409Z,28.10
2019-05-18T13:51:19.883Z,28.20
2019-05-18T13:52:58.058Z,27.80
2019-05-18T13:54:34.515Z,27.80
2019-05-18T13:56:11.703Z,28.00
2019-05-18T13:57:48.334Z,28.20
2019-05-18T13:59:25.877Z,28.30
2019-05-18T14:01:02.421Z,28.20
2019-05-18T14:02:40.355Z,28.00
2019-05-18T14:04:16.731Z,27.90
2019-05-18T14:05:53.942Z,27.60
2019-05-18T14:07:30.851Z,27.60
2019-05-18T14:09:08.100Z,26.70
2019-05-18T14:10:45.053Z,26.50
2019-05-18T14:12:22.176Z,26.60
2019-05-18T14:13:58.593Z,26.30
2019-05-18T14:15:35.850Z,26.10
2019-05-18T14:17:12.222Z,26.00
2019-05-18T14:18:49.865Z,25.60
2019-05-18T14:20:26.670Z,25.70
2019-05-18T14:22:03.867Z,25.70
2019-05-18T14:23:40.843Z,25.70
2019-05-18T14:25:19.732Z,25.80
2019-05-18T14:26:56.741Z,25.60
2019-05-18T14:28:34.343Z,25.30
2019-05-18T14:30:12.589Z,25.20
2019-05-18T14:31:49.743Z,25.10
2019-05-18T14:33:27.114Z,25.00
2019-05-18T14:35:05.999Z,25.00
2019-05-18T14:36:42.441Z,24.90
2019-05-18T14:38:19.638Z,24.60
2019-05-18T14:39:58.483Z,24.60
2019-05-18T14:41:35.777Z,24.50
2019-05-18T14:43:12.442Z,25.00
2019-05-18T14:44:50.214Z,24.90
2019-05-18T14:46:27.568Z,24.70
2019-05-18T14:48:05.219Z,24.70
2019-05-18T14:49:42.254Z,24.80
2019-05-18T14:51:19.347Z,24.70
2019-05-18T14:52:56.313Z,24.90
2019-05-18T14:54:33.947Z,25.00
2019-05-18T14:56:10.880Z,25.20
2019-05-18T14:57:48.007Z,25.20
2019-05-18T14:59:24.407Z,25.40
2019-05-18T15:01:01.652Z,25.40
2019-05-18T15:02:39.147Z,25.60
2019-05-18T15:04:16.896Z,25.50
2019-05-18T15:05:54.307Z,25.50
2019-05-18T15:07:31.471Z,25.60
2019-05-18T15:09:08.295Z,25.60
2019-05-18T15:10:46.081Z,25.60
2019-05-18T15:12:22.558Z,25.50
2019-05-18T15:13:59.740Z,25.60
2019-05-18T15:15:36.547Z,25.40
2019-05-18T15:17:13.791Z,25.50
2019-05-18T15:18:50.842Z,25.50
2019-05-18T15:20:28.003Z,25.70
2019-05-18T15:22:04.607Z,25.60
2019-05-18T15:23:42.169Z,25.70
2019-05-18T15:25:18.701Z,25.80
2019-05-18T15:26:56.732Z,26.00
2019-05-18T15:28:33.743Z,25.90
2019-05-18T15:30:12.899Z,26.00
2019-05-18T15:31:49.610Z,26.00
2019-05-18T15:33:26.881Z,25.90
2019-05-18T15:35:04.718Z,25.80
2019-05-18T15:36:42.125Z,25.60
2019-05-18T15:38:17.854Z,25.60
2019-05-18T15:39:55.263Z,25.80
2019-05-18T15:41:32.025Z,25.70
2019-05-18T15:43:09.371Z,25.50
2019-05-18T15:44:45.737Z,25.10
2019-05-18T15:46:23.137Z,24.70
2019-05-18T15:47:59.894Z,24.50
2019-05-18T15:49:37.359Z,24.40
2019-05-18T15:51:14.804Z,24.10
2019-05-18T15:52:51.395Z,23.80
2019-05-18T15:54:28.112Z,23.80
2019-05-18T15:56:06.486Z,23.60
2019-05-18T15:57:43.266Z,23.70
2019-05-18T15:59:20.467Z,23.90
2019-05-18T16:00:57.079Z,24.00
2019-05-18T16:02:34.718Z,24.00
2019-05-18T16:04:11.296Z,24.00
2019-05-18T16:05:48.479Z,23.80
2019-05-18T16:07:25.288Z,23.70
2019-05-18T16:09:02.488Z,23.70
2019-05-18T16:10:41.990Z,23.50
2019-05-18T16:12:19.212Z,23.50
2019-05-18T16:13:55.746Z,23.40
2019-05-18T16:15:33.051Z,23.50
2019-05-18T16:17:10.416Z,23.30
2019-05-18T16:18:47.857Z,23.20
2019-05-18T16:20:23.901Z,23.20
2019-05-18T16:22:01.164Z,23.20
2019-05-18T16:23:37.727Z,23.10
2019-05-18T16:25:15.474Z,23.10
2019-05-18T16:26:55.487Z,23.00
2019-05-18T16:28:33.007Z,22.90
2019-05-18T16:30:11.723Z,22.90
2019-05-18T16:31:48.823Z,22.80
2019-05-18T16:33:25.663Z,22.80
2019-05-18T16:35:02.889Z,22.90
2019-05-18T16:36:39.887Z,22.90
2019-05-18T16:38:17.623Z,22.90
2019-05-18T16:39:54.148Z,22.90
2019-05-18T16:41:31.276Z,22.80
2019-05-18T16:43:08.211Z,22.70
2019-05-18T16:44:46.439Z,22.60
2019-05-18T16:46:23.090Z,22.60
2019-05-18T16:48:00.359Z,22.60
2019-05-18T16:49:37.720Z,22.60
2019-05-18T16:51:14.901Z,22.50
2019-05-18T16:52:51.858Z,22.50
2019-05-18T16:54:28.893Z,22.50
2019-05-18T16:56:05.503Z,22.50
2019-05-18T16:57:42.760Z,22.50
2019-05-18T16:59:19.206Z,22.50
2019-05-18T17:00:59.381Z,22.50
2019-05-18T17:02:36.032Z,22.40
2019-05-18T17:04:13.381Z,22.40
2019-05-18T17:05:50.883Z,22.40
2019-05-18T17:07:28.223Z,22.40
2019-05-18T17:09:06.413Z,22.20
2019-05-18T17:10:43.623Z,22.20
2019-05-18T17:12:20.163Z,22.30
2019-05-18T17:13:57.357Z,22.20
2019-05-18T17:15:33.822Z,22.10
2019-05-18T17:17:11.429Z,22.20
2019-05-18T17:18:47.775Z,22.20
2019-05-18T17:20:25.137Z,22.10
2019-05-18T17:22:02.053Z,22.10
2019-05-18T17:23:39.362Z,22.10
2019-05-18T17:25:15.890Z,22.00
2019-05-18T17:26:53.635Z,22.00
2019-05-18T17:28:30.361Z,22.00
2019-05-18T17:30:09.928Z,21.90
2019-05-18T17:31:46.359Z,21.90
2019-05-18T17:33:23.771Z,21.80
2019-05-18T17:35:03.137Z,21.80
2019-05-18T17:36:40.528Z,21.70
2019-05-18T17:38:17.538Z,21.60
2019-05-18T17:39:54.868Z,21.60
2019-05-18T17:41:31.225Z,21.50
2019-05-18T17:43:08.470Z,21.40
2019-05-18T17:44:44.985Z,21.40
2019-05-18T17:46:22.133Z,21.40
2019-05-18T17:47:58.611Z,21.30
2019-05-18T17:49:36.211Z,21.30
2019-05-18T17:51:12.570Z,21.20
2019-05-18T17:52:50.157Z,21.20
2019-05-18T17:54:26.619Z,21.10
2019-05-18T17:56:04.049Z,21.10
2019-05-18T17:57:40.558Z,21.10
2019-05-18T17:59:17.757Z,21.10
2019-05-18T18:00:55.224Z,21.00
2019-05-18T18:02:32.492Z,21.00
2019-05-18T18:04:08.859Z,21.00
2019-05-18T18:05:46.535Z,21.00
2019-05-18T18:07:23.566Z,21.00
2019-05-18T18:09:01.089Z,20.90
2019-05-18T18:10:37.589Z,20.90
2019-05-18T18:12:14.931Z,20.80
2019-05-18T18:13:51.692Z,20.70
2019-05-18T18:15:28.946Z,20.60
2019-05-18T18:17:05.455Z,20.60
2019-05-18T18:18:42.660Z,20.60
2019-05-18T18:20:19.864Z,20.60
2019-05-18T18:21:57.041Z,20.60
2019-05-18T18:23:33.706Z,20.50
2019-05-18T18:25:11.147Z,20.50
2019-05-18T18:26:47.585Z,20.50
2019-05-18T18:28:25.295Z,20.40
2019-05-18T18:30:01.874Z,20.40
2019-05-18T18:31:39.445Z,20.40
2019-05-18T18:33:16.878Z,20.40
2019-05-18T18:34:54.219Z,20.40
2019-05-18T18:36:30.755Z,20.40
2019-05-18T18:38:08.080Z,20.40
2019-05-18T18:39:45.472Z,20.40
2019-05-18T18:41:22.767Z,20.40
2019-05-18T18:42:59.310Z,20.30
2019-05-18T18:44:36.845Z,20.30
2019-05-18T18:46:13.360Z,20.30
2019-05-18T18:47:51.400Z,20.30
2019-05-18T18:49:27.773Z,20.30
2019-05-18T18:51:05.213Z,20.30
2019-05-18T18:52:41.620Z,20.30
2019-05-18T18:54:18.806Z,20.30
2019-05-18T18:55:55.484Z,20.30
2019-05-18T18:57:41.156Z,20.20
2019-05-18T18:59:10.806Z,20.20
2019-05-18T19:00:47.935Z,20.20
2019-05-18T19:02:24.430Z,20.10
2019-05-18T19:04:01.597Z,20.10
2019-05-18T19:05:38.209Z,20.10
2019-05-18T19:07:15.786Z,20.10
2019-05-18T19:08:52.161Z,19.90
2019-05-18T19:10:29.335Z,19.80
2019-05-18T19:12:06.053Z,19.80
2019-05-18T19:13:45.890Z,19.70
2019-05-18T19:15:22.709Z,19.60
2019-05-18T19:17:00.149Z,19.50
2019-05-18T19:18:36.846Z,19.50
2019-05-18T19:20:15.682Z,19.60
2019-05-18T19:21:52.195Z,19.60
2019-05-18T19:23:29.438Z,19.60
2019-05-18T19:25:06.755Z,19.60
2019-05-18T19:26:43.860Z,19.60
2019-05-18T19:28:20.904Z,19.50
2019-05-18T19:29:58.247Z,19.40
2019-05-18T19:31:34.723Z,19.30
2019-05-18T19:33:12.062Z,19.20
2019-05-18T19:34:48.459Z,19.20
2019-05-18T19:36:25.487Z,19.10
2019-05-18T19:38:02.080Z,19.00
2019-05-18T19:39:39.399Z,19.00
2019-05-18T19:41:15.866Z,19.00
2019-05-18T19:42:53.248Z,19.00
2019-05-18T19:44:30.682Z,18.90
2019-05-18T19:46:07.915Z,18.90
2019-05-18T19:47:45.810Z,18.90
2019-05-18T19:49:22.868Z,18.80
2019-05-18T19:51:00.292Z,18.80
2019-05-18T19:52:37.706Z,18.80
2019-05-18T19:54:14.225Z,18.70
2019-05-18T19:55:50.834Z,18.70
2019-05-18T19:57:27.230Z,18.70
2019-05-18T19:59:04.417Z,18.60
2019-05-18T20:00:40.931Z,18.70
2019-05-18T20:02:18.585Z,18.70
2019-05-18T20:03:55.393Z,18.60
2019-05-18T20:05:33.497Z,18.70
2019-05-18T20:07:10.009Z,18.70
2019-05-18T20:08:47.155Z,18.70
2019-05-18T20:10:24.214Z,18.60
2019-05-18T20:12:01.345Z,18.60
2019-05-18T20:13:37.856Z,18.60
2019-05-18T20:15:15.817Z,18.50
2019-05-18T20:16:52.349Z,18.50
2019-05-18T20:18:29.390Z,18.50
2019-05-18T20:20:10.131Z,18.50
2019-05-18T20:21:47.307Z,18.50
2019-05-18T20:23:23.788Z,18.50
2019-05-18T20:25:01.082Z,18.50
2019-05-18T20:26:37.998Z,18.40
2019-05-18T20:28:23.522Z,18.40
2019-05-18T20:29:53.234Z,18.40
2019-05-18T20:31:30.637Z,18.40
2019-05-18T20:33:07.028Z,18.30
2019-05-18T20:34:44.832Z,18.40
2019-05-18T20:36:21.300Z,18.30
2019-05-18T20:37:58.776Z,18.30
2019-05-18T20:39:36.379Z,18.30
2019-05-18T20:41:13.712Z,18.20
2019-05-18T20:42:50.406Z,18.20
2019-05-18T20:44:27.656Z,18.30
2019-05-18T20:46:04.599Z,18.20
2019-05-18T20:47:41.708Z,18.20
2019-05-18T20:49:18.269Z,18.20
2019-05-18T20:50:56.596Z,18.20
2019-05-18T20:52:33.210Z,18.10